createdAt,value
2022-11-28T00:00:20.674Z,99.99
2022-11-28T00:02:50.647Z,99.99
2022-11-28T00:05:21.313Z,99.99
2022-11-28T00:07:52.247Z,99.99
2022-11-28T00:10:24.244Z,99.99
2022-11-28T00:12:55.479Z,99.99
2022-11-28T00:15:26.361Z,99.99
2022-11-28T00:17:56.811Z,99.99
2022-11-28T00:20:26.981Z,99.99
2022-11-28T00:22:56.955Z,99.99
2022-11-28T00:25:27.076Z,99.99
2022-11-28T00:27:57.017Z,99.99
2022-11-28T00:30:28.534Z,99.99
2022-11-28T00:32:58.829Z,99.99
2022-11-28T00:35:28.815Z,99.99
2022-11-28T00:37:58.824Z,99.99
2022-11-28T00:40:28.734Z,99.99
2022-11-28T00:42:59.270Z,99.99
2022-11-28T00:45:29.723Z,99.99
2022-11-28T00:48:00.120Z,99.99
2022-11-28T00:50:30.225Z,99.99
2022-11-28T00:53:00.214Z,99.99
2022-11-28T00:55:30.136Z,99.99
2022-11-28T00:58:00.258Z,99.99
2022-11-28T01:00:31.027Z,99.99
2022-11-28T01:03:01.644Z,99.99
2022-11-28T01:05:32.022Z,99.99
2022-11-28T01:08:02.823Z,99.99
2022-11-28T01:10:33.119Z,99.99
2022-11-28T01:13:03.109Z,99.99
2022-11-28T01:15:32.965Z,99.99
2022-11-28T01:18:03.870Z,99.99
2022-11-28T01:20:34.729Z,99.99
2022-11-28T01:23:05.437Z,99.99
2022-11-28T01:25:35.482Z,99.99
2022-11-28T01:28:05.542Z,99.99
2022-11-28T01:30:36.078Z,99.99
2022-11-28T01:33:06.326Z,98.74
2022-11-28T01:35:36.574Z,98.20
2022-11-28T01:38:06.506Z,98.30
2022-11-28T01:40:36.441Z,96.52
2022-11-28T01:43:07.549Z,96.11
2022-11-28T01:45:38.142Z,95.93
2022-11-28T01:48:10.750Z,95.89
2022-11-28T01:50:41.606Z,96.47
2022-11-28T01:53:12.928Z,96.18
2022-11-28T01:55:58.173Z,95.66
2022-11-28T01:58:29.358Z,95.46
2022-11-28T02:01:00.359Z,95.19
2022-11-28T02:03:37.742Z,95.26
2022-11-28T02:06:08.079Z,95.17
2022-11-28T02:08:39.115Z,95.66
2022-11-28T02:11:33.426Z,95.70
2022-11-28T02:14:12.689Z,95.65
2022-11-28T02:17:15.068Z,95.55
2022-11-28T02:20:28.178Z,95.08
2022-11-28T02:23:16.511Z,95.54
2022-11-28T02:26:21.394Z,96.69
2022-11-28T02:28:51.409Z,97.56
2022-11-28T02:31:35.689Z,96.91
2022-11-28T02:34:31.030Z,97.26
2022-11-28T02:37:28.918Z,98.57
2022-11-28T02:40:27.413Z,98.13
2022-11-28T02:43:08.031Z,98.26
2022-11-28T02:45:41.910Z,98.67
2022-11-28T02:48:29.546Z,99.40
2022-11-28T02:51:08.543Z,99.69
2022-11-28T02:53:40.340Z,99.66
2022-11-28T02:56:12.928Z,99.99
2022-11-28T02:58:43.211Z,99.99
2022-11-28T03:01:27.958Z,99.99
2022-11-28T03:04:01.191Z,98.86
2022-11-28T03:07:11.693Z,99.99
2022-11-28T03:10:00.275Z,99.99
2022-11-28T03:12:33.443Z,99.99
2022-11-28T03:15:08.256Z,99.66
2022-11-28T03:18:08.439Z,99.99
2022-11-28T03:20:55.765Z,99.69
2022-11-28T03:23:44.566Z,99.99
2022-11-28T03:26:27.305Z,99.99
2022-11-28T03:29:08.708Z,99.99
2022-11-28T03:31:46.964Z,99.99
2022-11-28T03:34:22.034Z,99.99
2022-11-28T03:36:59.249Z,99.99
2022-11-28T03:39:40.605Z,99.99
2022-11-28T03:42:23.116Z,99.99
2022-11-28T03:45:22.998Z,99.99
2022-11-28T03:48:04.247Z,99.99
2022-11-28T03:51:04.191Z,99.99
2022-11-28T03:54:17.109Z,99.99
2022-11-28T03:57:07.471Z,99.99
2022-11-28T04:00:10.587Z,99.99
2022-11-28T04:03:10.375Z,99.99
2022-11-28T04:05:51.893Z,99.99
2022-11-28T04:08:40.423Z,99.99
2022-11-28T04:11:32.478Z,99.99
2022-11-28T04:14:13.424Z,99.99
2022-11-28T04:16:56.703Z,99.99
2022-11-28T04:19:39.374Z,99.99
2022-11-28T04:22:29.133Z,99.99
2022-11-28T04:25:14.548Z,99.99
2022-11-28T04:27:51.912Z,99.99
2022-11-28T04:30:22.218Z,99.99
2022-11-28T04:32:57.199Z,99.99
2022-11-28T04:35:41.575Z,99.99
2022-11-28T04:38:13.951Z,99.99
2022-11-28T04:40:50.086Z,99.99
2022-11-28T04:43:24.369Z,99.99
2022-11-28T04:46:03.101Z,99.99
2022-11-28T04:48:34.595Z,99.99
2022-11-28T04:51:34.643Z,99.99
2022-11-28T04:54:29.761Z,99.99
2022-11-28T04:57:05.614Z,99.99
2022-11-28T04:59:36.126Z,99.99
2022-11-28T05:02:07.376Z,99.99
2022-11-28T05:04:39.098Z,99.99
2022-11-28T05:07:11.065Z,99.99
2022-11-28T05:09:41.344Z,99.99
2022-11-28T05:12:11.319Z,99.99
2022-11-28T05:14:42.324Z,99.99
2022-11-28T05:17:15.144Z,99.99
2022-11-28T05:19:45.414Z,99.99
2022-11-28T05:22:15.291Z,99.99
2022-11-28T05:24:45.335Z,99.99
2022-11-28T05:27:15.790Z,99.99
2022-11-28T05:29:52.086Z,99.99
2022-11-28T05:32:22.920Z,99.99
2022-11-28T05:34:53.173Z,99.99
2022-11-28T05:37:23.318Z,99.99
2022-11-28T05:39:53.662Z,99.99
2022-11-28T05:42:23.588Z,99.99
2022-11-28T05:44:53.906Z,99.99
2022-11-28T05:47:25.118Z,99.99
2022-11-28T05:49:55.689Z,99.99
2022-11-28T05:52:25.565Z,99.99
2022-11-28T05:54:55.410Z,99.99
2022-11-28T05:57:25.427Z,99.99
2022-11-28T05:59:55.352Z,99.99
2022-11-28T06:02:26.114Z,99.99
2022-11-28T06:04:56.670Z,99.99
2022-11-28T06:07:26.717Z,99.99
2022-11-28T06:09:56.610Z,99.99
2022-11-28T06:12:26.515Z,99.99
2022-11-28T06:14:56.574Z,99.99
2022-11-28T06:17:26.491Z,99.99
2022-11-28T06:19:56.792Z,99.99
2022-11-28T06:22:26.663Z,99.99
2022-11-28T06:24:57.380Z,99.99
2022-11-28T06:27:27.476Z,99.99
2022-11-28T06:29:58.383Z,99.99
2022-11-28T06:32:28.472Z,99.99
2022-11-28T06:34:58.360Z,99.99
2022-11-28T06:37:28.416Z,99.99
2022-11-28T06:39:58.569Z,99.99
2022-11-28T06:42:28.380Z,99.99
2022-11-28T06:44:59.147Z,99.99
2022-11-28T06:47:29.445Z,99.99
2022-11-28T06:49:59.734Z,99.99
2022-11-28T06:52:30.300Z,99.99
2022-11-28T06:55:00.344Z,99.99
2022-11-28T06:57:30.318Z,99.99
2022-11-28T07:00:00.705Z,99.99
2022-11-28T07:02:30.709Z,99.99
2022-11-28T07:05:00.893Z,99.99
2022-11-28T07:07:30.837Z,99.99
2022-11-28T07:10:00.694Z,99.99
2022-11-28T07:12:30.607Z,99.99
2022-11-28T07:15:00.470Z,99.99
2022-11-28T07:17:30.386Z,99.99
2022-11-28T07:20:00.240Z,99.99
2022-11-28T07:22:30.413Z,99.99
2022-11-28T07:25:00.270Z,99.99
2022-11-28T07:27:30.417Z,99.99
2022-11-28T07:30:00.279Z,99.99
2022-11-28T07:32:30.189Z,99.99
2022-11-28T07:35:00.960Z,99.99
2022-11-28T07:37:31.685Z,99.99
2022-11-28T07:40:01.505Z,99.99
2022-11-28T07:42:31.406Z,99.99
2022-11-28T07:45:08.545Z,99.99
2022-11-28T07:47:39.269Z,99.99
2022-11-28T07:50:11.124Z,99.99
2022-11-28T07:52:41.188Z,99.99
2022-11-28T07:55:11.097Z,99.99
2022-11-28T07:57:41.307Z,99.99
2022-11-28T08:00:11.974Z,99.99
2022-11-28T08:02:42.225Z,99.99
2022-11-28T08:05:13.911Z,99.99
2022-11-28T08:07:44.236Z,99.99
2022-11-28T08:10:14.486Z,99.99
2022-11-28T08:12:44.674Z,99.99
2022-11-28T08:15:14.587Z,99.99
2022-11-28T08:17:44.587Z,99.99
2022-11-28T08:20:14.849Z,99.99
2022-11-28T08:22:44.730Z,99.99
2022-11-28T08:25:15.036Z,99.99
2022-11-28T08:27:44.891Z,99.99
2022-11-28T08:30:15.360Z,99.99
2022-11-28T08:32:45.232Z,99.99
2022-11-28T08:35:15.168Z,99.99
2022-11-28T08:37:45.090Z,99.99
2022-11-28T08:40:16.291Z,99.99
2022-11-28T08:42:47.436Z,99.99
2022-11-28T08:45:17.733Z,99.99
2022-11-28T08:47:47.634Z,99.99
2022-11-28T08:50:18.094Z,99.99
2022-11-28T08:52:48.193Z,99.99
2022-11-28T08:55:20.978Z,99.99
2022-11-28T08:57:53.863Z,99.99
2022-11-28T09:00:24.108Z,99.99
2022-11-28T09:02:54.268Z,99.99
2022-11-28T09:05:24.426Z,99.99
2022-11-28T09:07:57.164Z,99.99
2022-11-28T09:10:27.629Z,99.99
2022-11-28T09:12:58.017Z,99.99
2022-11-28T09:15:28.971Z,99.33
2022-11-28T09:17:59.078Z,98.63
2022-11-28T09:20:29.030Z,97.29
2022-11-28T09:22:58.917Z,97.19
2022-11-28T09:25:29.483Z,96.79
2022-11-28T09:28:00.353Z,95.33
2022-11-28T09:30:30.600Z,95.09
2022-11-28T09:33:00.594Z,94.43
2022-11-28T09:35:31.113Z,93.71
2022-11-28T09:38:01.257Z,93.39
2022-11-28T09:40:41.728Z,92.58
2022-11-28T09:43:29.331Z,91.17
2022-11-28T09:46:01.282Z,90.69
2022-11-28T09:48:35.300Z,90.87
2022-11-28T09:51:33.045Z,90.94
2022-11-28T09:54:53.559Z,90.00
2022-11-28T09:57:49.875Z,89.08
2022-11-28T10:00:26.197Z,88.31
2022-11-28T10:03:25.020Z,87.59
2022-11-28T10:06:03.906Z,86.99
2022-11-28T10:08:47.676Z,87.18
2022-11-28T10:11:42.872Z,87.13
2022-11-28T10:14:22.402Z,83.72
2022-11-28T10:16:56.158Z,84.80
2022-11-28T10:19:54.696Z,85.26
2022-11-28T10:22:53.621Z,85.86
2022-11-28T10:26:08.271Z,87.53
2022-11-28T10:28:43.453Z,83.47
2022-11-28T10:31:36.326Z,85.30
2022-11-28T10:34:26.800Z,82.98
2022-11-28T10:37:09.914Z,84.18
2022-11-28T10:39:47.102Z,84.23
2022-11-28T10:42:37.003Z,84.35
2022-11-28T10:45:31.427Z,84.01
2022-11-28T10:51:20.075Z,82.03
2022-11-28T10:54:02.024Z,81.65
2022-11-28T10:56:57.995Z,83.02
2022-11-28T11:00:04.034Z,81.20
2022-11-28T11:02:56.065Z,80.67
2022-11-28T11:05:37.104Z,78.84
2022-11-28T11:08:10.841Z,78.95
2022-11-28T11:10:46.571Z,78.85
2022-11-28T11:13:20.618Z,76.86
2022-11-28T11:16:12.512Z,77.85
2022-11-28T11:18:45.723Z,78.38
2022-11-28T11:21:26.227Z,77.68
2022-11-28T11:24:18.650Z,78.33
2022-11-28T11:26:51.146Z,76.33
2022-11-28T11:29:43.318Z,77.95
2022-11-28T11:32:32.207Z,77.01
2022-11-28T11:35:03.409Z,75.88
2022-11-28T11:37:40.491Z,75.30
2022-11-28T11:40:39.781Z,77.21
2022-11-28T11:43:29.413Z,76.62
2022-11-28T11:46:14.313Z,76.16
2022-11-28T11:48:50.167Z,74.53
2022-11-28T11:51:29.589Z,74.22
2022-11-28T11:54:15.212Z,74.99
2022-11-28T11:56:56.440Z,73.63
2022-11-28T11:59:56.476Z,74.42
2022-11-28T12:02:37.006Z,73.80
2022-11-28T12:05:15.047Z,73.09
2022-11-28T12:07:54.621Z,72.92
2022-11-28T12:10:28.821Z,72.34
2022-11-28T12:12:59.492Z,72.87
2022-11-28T12:16:00.687Z,73.10
2022-11-28T12:18:51.622Z,71.62
2022-11-28T12:21:52.964Z,71.60
2022-11-28T12:25:04.378Z,72.80
2022-11-28T12:28:01.097Z,72.68
2022-11-28T12:30:31.585Z,70.54
2022-11-28T12:33:08.265Z,69.27
2022-11-28T12:35:44.526Z,68.18
2022-11-28T12:38:27.632Z,68.12
2022-11-28T12:41:09.539Z,68.47
2022-11-28T12:44:01.718Z,69.91
2022-11-28T12:46:40.847Z,69.68
2022-11-28T12:49:44.460Z,70.98
2022-11-28T12:52:35.475Z,69.96
2022-11-28T12:55:05.935Z,69.05
2022-11-28T12:58:17.652Z,68.67
2022-11-28T13:01:05.444Z,68.58
2022-11-28T13:03:58.706Z,67.94
2022-11-28T13:07:08.164Z,68.19
2022-11-28T13:10:13.749Z,68.94
2022-11-28T13:13:20.089Z,67.48
2022-11-28T13:15:59.275Z,66.90
2022-11-28T13:18:38.297Z,67.56
2022-11-28T13:21:11.753Z,66.65
2022-11-28T13:24:15.079Z,67.92
2022-11-28T13:27:23.294Z,68.23
2022-11-28T13:30:14.180Z,67.55
2022-11-28T13:33:33.210Z,67.25
2022-11-28T13:36:04.310Z,64.01
2022-11-28T13:39:11.926Z,66.25
2022-11-28T13:42:36.531Z,66.61
2022-11-28T13:44:57.023Z,66.23
2022-11-28T13:47:36.330Z,65.55
2022-11-28T13:50:24.895Z,66.58
2022-11-28T13:53:21.003Z,65.96
2022-11-28T13:55:53.892Z,65.58
2022-11-28T13:58:42.379Z,63.83
2022-11-28T14:01:18.916Z,62.33
2022-11-28T14:04:17.401Z,64.79
2022-11-28T14:07:00.191Z,64.21
2022-11-28T14:09:52.254Z,65.12
2022-11-28T14:12:43.489Z,63.48
2022-11-28T14:15:33.225Z,65.48
2022-11-28T14:18:55.692Z,66.17
2022-11-28T14:21:37.715Z,62.94
2022-11-28T14:24:46.738Z,61.07
2022-11-28T14:27:30.715Z,59.38
2022-11-28T14:30:02.832Z,59.28
2022-11-28T14:32:32.874Z,63.70
2022-11-28T14:35:03.973Z,61.84
2022-11-28T14:37:36.382Z,62.44
2022-11-28T14:41:01.617Z,63.39
2022-11-28T14:43:38.918Z,61.69
2022-11-28T14:46:26.858Z,61.73
2022-11-28T14:49:00.753Z,60.29
2022-11-28T14:51:51.531Z,61.66
2022-11-28T14:54:39.004Z,59.96
2022-11-28T14:57:19.850Z,61.32
2022-11-28T14:59:52.836Z,60.35
2022-11-28T15:03:01.216Z,62.33
2022-11-28T15:05:54.227Z,60.93
2022-11-28T15:08:36.324Z,59.96
2022-11-28T15:11:13.369Z,59.94
2022-11-28T15:13:46.686Z,59.21
2022-11-28T15:16:19.945Z,57.72
2022-11-28T15:18:55.345Z,57.92
2022-11-28T15:21:26.045Z,58.51
2022-11-28T15:23:57.171Z,58.53
2022-11-28T15:26:31.770Z,58.95
2022-11-28T15:29:12.185Z,58.36
2022-11-28T15:31:44.361Z,58.31
2022-11-28T15:34:30.994Z,58.36
2022-11-28T15:37:06.876Z,55.77
2022-11-28T16:01:12.024Z,56.52
2022-11-28T16:03:45.396Z,57.41
2022-11-28T16:06:15.756Z,58.07
2022-11-28T16:08:53.764Z,62.78
2022-11-28T16:11:27.124Z,58.00
2022-11-28T16:13:59.901Z,62.96
2022-11-28T16:16:39.443Z,63.34
2022-11-28T16:19:34.213Z,64.78
2022-11-28T16:22:07.685Z,59.71
2022-11-28T16:24:51.027Z,57.58
2022-11-28T16:27:38.722Z,59.58
2022-11-28T16:30:43.932Z,61.83
2022-11-28T16:33:46.003Z,58.52
2022-11-28T16:36:32.267Z,62.08
2022-11-28T16:39:15.793Z,61.97
2022-11-28T16:42:12.563Z,59.32
2022-11-28T16:44:42.937Z,63.31
2022-11-28T16:47:31.927Z,62.39
2022-11-28T16:50:15.618Z,62.70
2022-11-28T16:53:06.705Z,63.22
2022-11-28T16:55:36.767Z,59.66
2022-11-28T16:58:15.393Z,61.35
2022-11-28T17:00:52.417Z,58.80
2022-11-28T17:03:52.896Z,60.38
2022-11-28T17:06:36.082Z,57.10
2022-11-28T17:09:13.031Z,54.43
2022-11-28T17:11:46.890Z,54.83
2022-11-28T17:14:17.879Z,58.25
2022-11-28T17:16:47.972Z,60.95
2022-11-28T17:19:17.806Z,60.40
2022-11-28T17:22:00.531Z,63.63
2022-11-28T17:24:36.044Z,62.52
2022-11-28T17:27:09.524Z,63.75
2022-11-28T17:29:39.556Z,64.65
2022-11-28T17:32:13.306Z,62.75
2022-11-28T17:34:43.997Z,59.77
2022-11-28T17:37:14.631Z,57.97
2022-11-28T17:40:04.162Z,59.00
2022-11-28T17:42:34.421Z,57.19
2022-11-28T17:45:04.702Z,58.66
2022-11-28T17:47:35.571Z,58.48
2022-11-28T17:50:05.730Z,57.45
2022-11-28T17:52:36.051Z,57.72
2022-11-28T17:55:07.238Z,57.91
2022-11-28T17:57:38.600Z,56.60
2022-11-28T18:00:10.404Z,57.82
2022-11-28T18:02:47.287Z,58.13
2022-11-28T18:05:17.340Z,57.86
2022-11-28T18:07:47.323Z,58.04
2022-11-28T18:10:17.227Z,57.37
2022-11-28T18:12:47.455Z,56.59
2022-11-28T18:15:18.224Z,57.64
2022-11-28T18:17:50.109Z,56.44
2022-11-28T18:20:21.156Z,55.79
2022-11-28T18:22:51.213Z,56.39
2022-11-28T18:25:21.272Z,57.53
2022-11-28T18:27:52.175Z,56.98
2022-11-28T18:30:22.230Z,56.95
2022-11-28T18:32:52.705Z,56.15
2022-11-28T18:35:23.514Z,58.30
2022-11-28T18:37:55.756Z,59.21
2022-11-28T18:40:26.145Z,58.29
2022-11-28T18:42:55.954Z,58.87
2022-11-28T18:45:25.897Z,59.71
2022-11-28T18:48:00.211Z,59.51
2022-11-28T18:50:32.060Z,61.52
2022-11-28T18:53:02.770Z,59.65
2022-11-28T18:55:32.605Z,59.80
2022-11-28T18:58:02.833Z,60.03
2022-11-28T19:00:32.723Z,59.86
2022-11-28T19:03:02.711Z,61.77
2022-11-28T19:05:37.830Z,62.29
2022-11-28T19:08:11.390Z,60.22
2022-11-28T19:10:42.093Z,61.11
2022-11-28T19:13:12.525Z,61.26
2022-11-28T19:15:43.396Z,61.27
2022-11-28T19:18:14.803Z,60.99
2022-11-28T19:20:45.342Z,60.79
2022-11-28T19:23:15.196Z,60.78
2022-11-28T19:25:50.774Z,61.20
2022-11-28T19:28:21.353Z,61.00
2022-11-28T19:30:51.112Z,62.18
2022-11-28T19:33:20.862Z,62.77
2022-11-28T19:35:50.647Z,64.25
2022-11-28T19:38:20.860Z,63.79
2022-11-28T19:40:50.627Z,64.30
2022-11-28T19:43:20.965Z,65.17
2022-11-28T19:45:59.717Z,65.60
2022-11-28T19:48:32.370Z,66.31
2022-11-28T19:51:04.613Z,65.50
2022-11-28T19:53:38.842Z,65.33
2022-11-28T19:56:21.092Z,65.74
2022-11-28T19:58:51.821Z,64.69
2022-11-28T20:01:24.757Z,65.62
2022-11-28T20:03:56.221Z,65.79
2022-11-28T20:06:29.093Z,66.08
2022-11-28T20:09:07.465Z,65.40
2022-11-28T20:11:41.011Z,65.24
2022-11-28T20:14:17.622Z,64.87
2022-11-28T20:16:48.922Z,64.69
2022-11-28T20:19:19.466Z,64.90
2022-11-28T20:21:51.046Z,65.75
2022-11-28T20:24:22.700Z,66.53
2022-11-28T20:26:52.741Z,66.08
2022-11-28T20:29:27.829Z,66.47
2022-11-28T20:31:58.338Z,67.12
2022-11-28T20:34:30.054Z,67.63
2022-11-28T20:37:03.098Z,68.37
2022-11-28T20:39:33.934Z,67.97
2022-11-28T20:42:04.318Z,67.82
2022-11-28T20:44:34.473Z,67.44
2022-11-28T20:47:04.323Z,67.71
2022-11-28T20:49:34.080Z,67.34
2022-11-28T20:52:03.865Z,66.67
2022-11-28T20:54:34.605Z,67.01
2022-11-28T20:57:20.944Z,66.85
2022-11-28T20:59:52.216Z,66.99
2022-11-28T21:02:22.075Z,66.90
2022-11-28T21:04:52.250Z,67.22
2022-11-28T21:07:23.441Z,66.84
2022-11-28T21:09:55.533Z,67.13
2022-11-28T21:12:25.829Z,67.28
2022-11-28T21:14:56.102Z,67.52
2022-11-28T21:17:26.242Z,67.77
2022-11-28T21:19:56.012Z,68.29
2022-11-28T21:22:25.826Z,68.54
2022-11-28T21:24:55.575Z,68.80
2022-11-28T21:27:25.670Z,68.80
2022-11-28T21:29:55.504Z,68.90
2022-11-28T21:32:25.512Z,69.31
2022-11-28T21:34:58.372Z,69.37
2022-11-28T21:37:31.494Z,69.50
2022-11-28T21:40:01.308Z,69.89
2022-11-28T21:42:31.062Z,69.24
2022-11-28T21:45:01.313Z,69.55
2022-11-28T21:47:31.097Z,69.07
2022-11-28T21:50:01.294Z,68.89
2022-11-28T21:52:31.171Z,69.33
2022-11-28T21:55:01.211Z,69.38
2022-11-28T21:57:31.035Z,69.61
2022-11-28T22:00:00.859Z,69.79
2022-11-28T22:02:33.347Z,69.77
2022-11-28T22:05:03.406Z,70.44
2022-11-28T22:07:33.316Z,70.63
2022-11-28T22:10:04.076Z,70.68
2022-11-28T22:12:35.295Z,71.02
2022-11-28T22:15:06.119Z,71.14
2022-11-28T22:17:36.716Z,71.11
2022-11-28T22:20:09.968Z,71.35
2022-11-28T22:22:41.955Z,71.71
2022-11-28T22:25:12.410Z,70.89
2022-11-28T22:27:42.412Z,71.65
2022-11-28T22:30:12.712Z,71.93
2022-11-28T22:32:43.403Z,72.12
2022-11-28T22:35:13.868Z,72.33
2022-11-28T22:37:44.546Z,72.38
2022-11-28T22:40:16.946Z,72.61
2022-11-28T22:42:46.939Z,72.74
2022-11-28T22:45:16.838Z,72.86
2022-11-28T22:47:46.757Z,73.01
2022-11-28T22:50:16.645Z,72.95
2022-11-28T22:52:47.090Z,73.03
2022-11-28T22:55:17.098Z,73.03
2022-11-28T22:57:47.543Z,73.17
2022-11-28T23:00:18.013Z,73.36
2022-11-28T23:02:47.978Z,73.29
2022-11-28T23:05:18.440Z,73.35
2022-11-28T23:07:48.731Z,73.18
2022-11-28T23:10:19.257Z,73.46
2022-11-28T23:12:49.202Z,73.58
2022-11-28T23:15:19.491Z,73.64
2022-11-28T23:17:49.623Z,73.87
2022-11-28T23:20:20.082Z,73.95
2022-11-28T23:22:49.955Z,74.23
2022-11-28T23:25:22.418Z,74.14
2022-11-28T23:27:52.368Z,74.11
2022-11-28T23:30:22.699Z,73.98
2022-11-28T23:32:52.571Z,74.26
2022-11-28T23:35:22.355Z,74.33
2022-11-28T23:37:52.196Z,74.60
2022-11-28T23:40:22.188Z,75.00
2022-11-28T23:42:52.261Z,75.04
2022-11-28T23:45:22.012Z,75.28
2022-11-28T23:47:51.767Z,75.31
2022-11-28T23:50:21.602Z,75.44
2022-11-28T23:52:51.584Z,75.62
2022-11-28T23:55:21.595Z,75.85
2022-11-28T23:57:51.468Z,75.74
